Time;durP1;ratioP1;P1;durP2;ratioP2;P2;SDS_P1;SDS_P2;PMS_P1;PMS_P2;Temp;Humidity;BMP_temperature;BMP_pressure;BME280_temperature;BME280_humidity;BME280_pressure;Samples;Min_cycle;Max_cycle;Signal;HPM_P1;HPM_P2
2023/01/12 00:01:28;;;;;;;5.70;2.13;;;;;;;2.97;100.00;96596.66;4831718;29;20018;-91
2023/01/12 00:03:54;;;;;;;7.70;2.00;;;;;;;3.01;100.00;96596.34;4815977;29;20048;-91
2023/01/12 00:06:21;;;;;;;11.60;2.33;;;;;;;2.98;100.00;96593.94;4834668;29;20045;-91
2023/01/12 00:08:48;;;;;;;6.63;1.80;;;;;;;3.06;100.00;96593.47;4840368;29;20037;-91
2023/01/12 00:11:18;;;;;;;9.37;1.50;;;;;;;3.07;100.00;96584.72;4867609;29;20089;-91
2023/01/12 00:13:45;;;;;;;7.87;1.57;;;;;;;3.06;100.00;96583.06;4837805;29;20041;-91
2023/01/12 00:16:34;;;;;;;6.47;1.80;;;;;;;3.01;100.00;96585.13;4818313;29;20038;-91
2023/01/12 00:19:11;;;;;;;9.60;1.73;;;;;;;3.03;100.00;96578.06;4818156;29;20038;-91
2023/01/12 00:21:55;;;;;;;6.13;1.87;;;;;;;2.96;100.00;96589.81;4838179;29;20038;-91
2023/01/12 00:24:21;;;;;;;;;;;;;;;2.90;100.00;96585.03;4813484;29;20065;-91
2023/01/12 00:26:54;;;;;;;6.77;1.37;;;;;;;2.90;100.00;96588.47;4812052;29;19917;-91
2023/01/12 00:29:28;;;;;;;4.18;1.48;;;;;;;2.91;100.00;96587.50;4825634;29;20064;-91
2023/01/12 00:31:55;;;;;;;6.67;1.50;;;;;;;2.93;100.00;96583.06;4827874;29;20114;-90
2023/01/12 00:34:21;;;;;;;7.13;1.33;;;;;;;2.93;100.00;96593.44;4837045;29;20026;-91
2023/01/12 00:36:47;;;;;;;10.37;1.80;;;;;;;2.96;100.00;96592.41;4818982;29;20065;-91
2023/01/12 00:39:14;;;;;;;8.10;1.53;;;;;;;3.04;100.00;96605.72;4836061;29;20049;-90
2023/01/12 00:47:11;;;;;;;7.57;1.20;;;;;;;3.09;100.00;96595.03;4855078;29;20091;-91
2023/01/12 00:49:37;;;;;;;7.03;1.50;;;;;;;3.24;100.00;96597.38;4850408;29;20501;-91
2023/01/12 00:52:05;;;;;;;7.90;1.43;;;;;;;3.32;100.00;96578.69;4812436;29;20530;-91
2023/01/12 00:54:32;;;;;;;6.30;1.17;;;;;;;3.35;100.00;96572.41;4816918;29;20038;-91
2023/01/12 00:56:57;;;;;;;11.90;1.87;;;;;;;3.47;100.00;96568.97;4833427;29;20038;-91
2023/01/12 00:59:23;;;;;;;6.70;1.10;;;;;;;3.66;100.00;96576.31;4815989;29;20102;-91
2023/01/12 01:01:49;;;;;;;9.83;1.73;;;;;;;3.77;100.00;96566.81;4822054;29;20034;-91
2023/01/12 01:04:15;;;;;;;5.90;1.60;;;;;;;3.79;100.00;96561.50;4831173;29;20037;-91
2023/01/12 01:06:40;;;;;;;9.97;1.47;;;;;;;3.84;100.00;96564.59;4832645;29;20041;-91
2023/01/12 01:09:07;;;;;;;8.33;1.50;;;;;;;3.82;100.00;96571.66;4812792;29;20044;-91
2023/01/12 01:11:33;;;;;;;5.53;1.13;;;;;;;3.88;100.00;96560.00;4841114;29;20030;-91
2023/01/12 01:14:03;;;;;;;4.37;0.87;;;;;;;3.97;100.00;96565.38;4828453;29;20042;-91
2023/01/12 01:16:30;;;;;;;9.67;1.50;;;;;;;4.01;100.00;96564.22;4810748;29;20034;-91
2023/01/12 01:18:57;;;;;;;8.47;1.50;;;;;;;4.06;100.00;96558.69;4803484;29;20683;-91
2023/01/12 01:21:29;;;;;;;8.30;1.33;;;;;;;4.14;100.00;96569.38;4833475;29;20038;-91
2023/01/12 01:23:55;;;;;;;8.40;1.37;;;;;;;4.17;100.00;96568.31;4841122;29;20117;-91
2023/01/12 01:26:22;;;;;;;10.67;1.80;;;;;;;4.31;100.00;96556.91;4809344;29;20171;-91
2023/01/12 01:28:48;;;;;;;4.97;1.27;;;;;;;4.29;100.00;96564.81;4821632;29;20065;-91
2023/01/12 01:31:20;;;;;;;7.30;1.20;;;;;;;4.36;100.00;96566.03;4832717;29;20053;-90
2023/01/12 01:33:46;;;;;;;5.73;1.30;;;;;;;4.35;100.00;96559.16;4837280;29;20045;-92
2023/01/12 01:36:13;;;;;;;8.67;1.00;;;;;;;4.28;100.00;96557.94;4843729;29;20038;-91
2023/01/12 01:38:38;;;;;;;7.97;1.33;;;;;;;4.31;100.00;96568.13;4825152;29;20039;-91
2023/01/12 01:41:05;;;;;;;8.43;1.17;;;;;;;4.31;100.00;96560.34;4845044;29;20076;-91
2023/01/12 01:43:53;;;;;;;6.53;1.30;;;;;;;4.26;100.00;96565.06;4865516;29;20137;-91
2023/01/12 01:46:51;;;;;;;9.20;1.27;;;;;;;4.17;100.00;96566.56;4829355;29;20041;-91
2023/01/12 01:49:22;;;;;;;8.40;2.70;;;;;;;4.23;100.00;96562.69;4829043;29;20097;-91
2023/01/12 01:51:49;;;;;;;3.47;0.90;;;;;;;4.27;100.00;96561.50;4850429;29;20046;-91
2023/01/12 01:54:15;;;;;;;8.13;1.13;;;;;;;4.34;100.00;96541.88;4817058;29;20041;-91
2023/01/12 01:56:42;;;;;;;4.70;1.20;;;;;;;4.37;100.00;96546.88;4812222;29;20092;-91
2023/01/12 01:59:14;;;;;;;9.10;2.07;;;;;;;4.36;100.00;96534.81;4812854;29;20038;-91
2023/01/12 02:01:43;;;;;;;6.43;1.20;;;;;;;4.29;100.00;96548.38;4815134;29;20033;-91
2023/01/12 02:04:10;;;;;;;6.40;0.90;;;;;;;4.35;100.00;96543.53;4811045;29;20022;-91
2023/01/12 02:06:36;;;;;;;7.20;1.00;;;;;;;4.38;100.00;96555.50;4848770;29;20057;-91
2023/01/12 02:09:13;;;;;;;6.00;0.87;;;;;;;4.23;100.00;96545.28;4830685;29;20067;-91
2023/01/12 02:17:27;;;;;;;8.07;0.90;;;;;;;4.34;100.00;96528.88;4831460;29;20041;-91
2023/01/12 02:20:32;;;;;;;8.07;1.20;;;;;;;4.38;100.00;96527.69;4854223;29;20045;-91
2023/01/12 02:23:17;;;;;;;4.77;0.80;;;;;;;4.50;100.00;96531.16;4831931;29;20564;-90
2023/01/12 02:26:04;;;;;;;8.17;1.13;;;;;;;4.64;100.00;96527.53;4830022;29;20040;-91
2023/01/12 02:28:57;;;;;;;9.50;1.80;;;;;;;4.61;100.00;96522.53;4811675;29;20508;-91
2023/01/12 02:32:01;;;;;;;5.57;0.63;;;;;;;4.67;100.00;96519.47;4818828;29;20057;-91
2023/01/12 02:38:18;;;;;;;5.13;0.80;;;;;;;4.65;100.00;96513.56;4844649;29;20069;-91
2023/01/12 02:41:02;;;;;;;5.57;1.35;;;;;;;4.62;100.00;96511.16;4778959;30;20051;-91
2023/01/12 02:43:30;;;;;;;;;;;;;;;4.56;100.00;96509.88;4853583;29;20081;-92
2023/01/12 02:46:10;;;;;;;8.60;1.50;;;;;;;4.52;100.00;96508.44;4821515;29;20435;-91
2023/01/12 02:49:07;;;;;;;6.87;1.07;;;;;;;4.55;100.00;96507.38;4827857;29;20045;-91
2023/01/12 02:51:56;;;;;;;5.73;1.00;;;;;;;4.54;100.00;96497.91;4816233;29;20781;-91
2023/01/12 02:54:24;;;;;;;7.03;1.17;;;;;;;4.46;100.00;96490.66;4816677;29;20561;-91
2023/01/12 02:57:00;;;;;;;4.10;0.90;;;;;;;4.57;100.00;96482.88;4849241;29;20041;-91
2023/01/12 02:59:30;;;;;;;6.57;1.20;;;;;;;4.60;100.00;96479.22;4842949;29;20041;-91
2023/01/12 03:02:01;;;;;;;5.93;0.90;;;;;;;4.62;100.00;96461.69;4829637;29;20033;-91
2023/01/12 03:04:30;;;;;;;5.33;0.73;;;;;;;4.67;100.00;96462.16;4822107;29;20031;-91
2023/01/12 03:06:56;;;;;;;7.77;0.90;;;;;;;4.63;100.00;96465.97;4830516;29;20030;-91
2023/01/12 03:09:27;;;;;;;7.17;1.53;;;;;;;4.64;100.00;96475.44;4807606;29;20072;-91
2023/01/12 03:11:58;;;;;;;8.13;2.50;;;;;;;4.54;100.00;96458.84;4839695;29;20070;-91
2023/01/12 03:14:27;;;;;;;9.33;1.37;;;;;;;4.57;100.00;96454.22;4845461;29;20061;-90
2023/01/12 03:16:55;;;;;;;5.13;1.47;;;;;;;4.58;100.00;96444.63;4819895;29;20492;-91
2023/01/12 03:19:27;;;;;;;6.03;1.93;;;;;;;4.61;100.00;96445.22;4831169;29;20149;-91
2023/01/12 03:21:57;;;;;;;5.63;1.97;;;;;;;4.65;100.00;96438.00;4813016;29;20038;-91
2023/01/12 03:24:55;;;;;;;7.27;1.17;;;;;;;4.62;100.00;96440.84;4833843;29;20042;-91
2023/01/12 03:27:31;;;;;;;8.80;1.13;;;;;;;4.69;100.00;96437.66;4834500;29;20088;-91
2023/01/12 03:30:26;;;;;;;6.03;1.37;;;;;;;4.60;100.00;96437.53;4811606;29;20037;-91
2023/01/12 03:32:52;;;;;;;5.10;1.10;;;;;;;4.65;100.00;96435.41;4817150;29;20046;-91
2023/01/12 03:35:22;;;;;;;9.40;2.07;;;;;;;4.61;100.00;96431.38;4827874;29;20037;-91
2023/01/12 03:37:57;;;;;;;11.40;2.53;;;;;;;4.58;100.00;96418.59;4818852;29;20580;-91
2023/01/12 03:40:33;;;;;;;8.07;1.37;;;;;;;4.59;100.00;96435.88;4814515;29;20033;-91
2023/01/12 03:43:25;;;;;;;4.73;1.20;;;;;;;4.65;100.00;96436.22;4831945;29;20049;-91
2023/01/12 03:46:22;;;;;;;2.87;0.70;;;;;;;4.67;100.00;96443.94;4839598;29;20037;-91
2023/01/12 03:49:01;;;;;;;5.90;1.20;;;;;;;4.68;100.00;96432.56;4814026;29;20080;-92
2023/01/12 03:51:33;;;;;;;6.80;1.13;;;;;;;4.79;100.00;96439.53;4829378;29;20039;-92
2023/01/12 03:53:59;;;;;;;9.50;2.07;;;;;;;4.83;100.00;96440.97;4829654;29;20046;-91
2023/01/12 03:56:30;;;;;;;4.67;0.97;;;;;;;4.90;100.00;96437.78;4834100;29;20158;-90
2023/01/12 03:58:56;;;;;;;7.83;1.17;;;;;;;4.92;100.00;96448.06;4831122;29;20037;-91
2023/01/12 04:01:22;;;;;;;4.83;1.40;;;;;;;4.97;100.00;96446.78;4861373;29;20026;-91
2023/01/12 04:03:48;;;;;;;5.97;2.10;;;;;;;4.89;100.00;96449.13;4813324;29;20466;-91
2023/01/12 04:06:14;;;;;;;3.63;0.90;;;;;;;4.94;100.00;96446.19;4813157;29;20046;-91
2023/01/12 04:08:39;;;;;;;5.83;1.77;;;;;;;4.99;100.00;96440.59;4827657;29;20048;-91
2023/01/12 04:13:56;;;;;;;12.97;1.10;;;;;;;4.95;100.00;96432.19;4830645;29;20038;-91
2023/01/12 04:16:22;;;;;;;9.27;1.23;;;;;;;4.98;100.00;96426.75;4831348;29;20045;-90
2023/01/12 04:18:47;;;;;;;6.57;1.40;;;;;;;5.03;100.00;96421.16;4830927;29;20034;-91
2023/01/12 04:23:57;;;;;;;6.73;1.10;;;;;;;4.95;100.00;96427.81;4854035;29;20033;-91
2023/01/12 04:26:23;;;;;;;5.67;1.03;;;;;;;5.00;100.00;96429.22;4840830;29;20034;-91
2023/01/12 04:28:49;;;;;;;8.40;1.30;;;;;;;5.00;100.00;96424.00;4813256;29;20042;-91
2023/01/12 04:31:15;;;;;;;7.23;1.40;;;;;;;5.05;100.00;96427.09;4839234;29;20042;-91
2023/01/12 04:33:41;;;;;;;10.90;1.67;;;;;;;5.01;100.00;96425.69;4827932;29;20100;-92
2023/01/12 04:36:10;;;;;;;7.13;1.33;;;;;;;4.92;100.00;96424.63;4827636;29;20029;-91
2023/01/12 04:38:36;;;;;;;3.43;0.70;;;;;;;4.84;100.00;96424.41;4817183;29;20053;-91
2023/01/12 04:41:02;;;;;;;5.23;1.43;;;;;;;4.84;100.00;96424.41;4838215;29;20042;-91
2023/01/12 04:43:28;;;;;;;8.67;1.23;;;;;;;4.75;100.00;96425.94;4843105;29;20042;-91
2023/01/12 04:45:54;;;;;;;9.90;1.43;;;;;;;4.89;100.00;96422.25;4829482;29;20037;-92
2023/01/12 04:48:19;;;;;;;7.23;1.23;;;;;;;4.83;100.00;96426.19;4819037;29;20064;-91
2023/01/12 04:50:45;;;;;;;4.63;1.07;;;;;;;4.83;100.00;96433.16;4829185;29;20050;-91
2023/01/12 04:53:12;;;;;;;6.43;1.30;;;;;;;4.78;100.00;96425.69;4827386;29;20049;-91
2023/01/12 04:55:40;;;;;;;9.10;1.10;;;;;;;4.80;100.00;96428.19;4810342;29;20494;-91
2023/01/12 04:58:08;;;;;;;8.43;1.20;;;;;;;4.82;100.00;96415.88;4806213;29;20042;-91
2023/01/12 05:00:34;;;;;;;7.67;1.43;;;;;;;4.88;100.00;96404.97;4838449;29;20041;-91
2023/01/12 05:03:01;;;;;;;6.03;1.00;;;;;;;4.92;100.00;96406.38;4828553;29;20037;-91
2023/01/12 05:05:32;;;;;;;5.17;1.00;;;;;;;4.86;100.00;96417.28;4831741;29;20060;-92
2023/01/12 05:10:55;;;;;;;5.93;1.60;;;;;;;4.99;100.00;96404.13;4833154;29;20116;-92
2023/01/12 05:13:26;;;;;;;11.97;2.03;;;;;;;4.93;100.00;96387.22;4849566;29;20504;-91
2023/01/12 05:15:52;;;;;;;13.43;1.63;;;;;;;4.95;100.00;96391.31;4827961;29;20174;-92
2023/01/12 05:18:17;;;;;;;6.97;1.53;;;;;;;4.90;100.00;96385.66;4813092;29;20058;-91
2023/01/12 05:20:43;;;;;;;13.83;3.70;;;;;;;4.92;100.00;96380.31;4830485;29;20044;-91
2023/01/12 05:23:11;;;;;;;8.30;1.87;;;;;;;4.93;100.00;96380.22;4848567;29;20066;-93
2023/01/12 05:25:37;;;;;;;9.07;2.43;;;;;;;5.05;100.00;96385.41;4844725;29;20049;-94
2023/01/12 05:28:03;;;;;;;11.00;1.40;;;;;;;5.04;100.00;96370.72;4819546;29;20030;-93
2023/01/12 05:30:36;;;;;;;5.77;1.30;;;;;;;5.04;100.00;96370.72;4859813;29;20046;-93
2023/01/12 05:33:02;;;;;;;8.77;1.33;;;;;;;5.06;100.00;96387.03;4844865;29;20033;-94
2023/01/12 05:35:32;;;;;;;8.67;1.53;;;;;;;5.09;100.00;96376.38;4823763;29;20515;-93
2023/01/12 05:37:58;;;;;;;7.53;1.37;;;;;;;5.05;100.00;96385.41;4825482;29;20046;-94
2023/01/12 05:40:24;;;;;;;6.40;1.37;;;;;;;5.07;100.00;96384.34;4837980;29;20098;-93
2023/01/12 05:45:39;;;;;;;10.90;2.50;;;;;;;5.03;100.00;96374.25;4828723;29;20036;-93
2023/01/12 05:48:16;;;;;;;8.03;1.33;;;;;;;5.04;100.00;96374.16;4817072;29;20041;-94
2023/01/12 05:50:41;;;;;;;10.10;1.53;;;;;;;5.02;100.00;96367.41;4829462;29;20098;-94
2023/01/12 05:53:09;;;;;;;9.90;2.17;;;;;;;5.01;100.00;96376.16;4814088;29;20046;-95
2023/01/12 05:55:36;;;;;;;4.53;1.23;;;;;;;4.96;100.00;96379.13;4813501;29;20117;-93
2023/01/12 05:58:02;;;;;;;6.50;1.90;;;;;;;4.97;100.00;96378.19;4829292;29;20061;-94
2023/01/12 06:00:28;;;;;;;9.23;1.90;;;;;;;4.98;100.00;96369.41;4832056;29;20041;-95
2023/01/12 06:02:54;;;;;;;14.00;1.50;;;;;;;4.92;100.00;96375.09;4849052;29;20026;-94
2023/01/12 06:05:29;;;;;;;8.53;1.90;;;;;;;4.95;100.00;96373.09;4848334;29;20044;-94
2023/01/12 06:07:54;;;;;;;9.73;1.47;;;;;;;5.00;100.00;96377.94;4845480;29;20034;-94
2023/01/12 06:10:21;;;;;;;5.87;1.23;;;;;;;4.95;100.00;96380.09;4831042;29;20049;-94
2023/01/12 06:15:34;;;;;;;7.30;1.20;;;;;;;4.85;100.00;96379.97;4816595;29;20041;-94
2023/01/12 06:17:59;;;;;;;9.93;2.57;;;;;;;4.86;100.00;96378.19;4828794;29;20038;-94
2023/01/12 06:24:12;;;;;;;14.50;2.93;;;;;;;4.95;100.00;96377.47;4865470;29;20076;-94
2023/01/12 06:29:54;;;;;;;5.75;1.25;;;;;;;5.23;100.00;96368.31;4852544;29;20082;-92
2023/01/12 06:36:08;;;;;;;13.73;2.20;;;;;;;5.09;100.00;96355.53;4854198;29;20097;-93
2023/01/12 06:38:36;;;;;;;5.37;1.00;;;;;;;5.10;100.00;96341.56;4817464;29;20552;-93
2023/01/12 06:41:07;;;;;;;7.47;2.10;;;;;;;5.09;100.00;96334.66;4816893;29;20038;-93
2023/01/12 06:43:34;;;;;;;10.00;1.67;;;;;;;5.10;100.00;96341.56;4832131;29;20110;-93
2023/01/12 06:46:00;;;;;;;7.37;1.50;;;;;;;5.11;100.00;96348.44;4832019;29;20058;-93
2023/01/12 06:48:26;;;;;;;7.80;1.40;;;;;;;5.07;100.00;96345.22;4829250;29;20071;-94
2023/01/12 06:51:01;;;;;;;7.20;1.63;;;;;;;5.00;100.00;96341.47;4847294;29;20042;-93
2023/01/12 06:53:27;;;;;;;10.20;1.50;;;;;;;5.09;100.00;96343.31;4832146;29;20042;-92
2023/01/12 06:55:53;;;;;;;11.70;1.70;;;;;;;5.10;100.00;96347.59;4816679;29;20106;-93
2023/01/12 06:58:19;;;;;;;9.17;1.90;;;;;;;5.01;100.00;96348.31;4833555;29;20045;-94
2023/01/12 07:00:44;;;;;;;6.53;1.30;;;;;;;4.92;100.00;96360.28;4834813;29;20424;-93
2023/01/12 07:03:20;;;;;;;8.97;1.33;;;;;;;5.01;100.00;96352.72;4836322;29;20033;-93
2023/01/12 07:05:50;;;;;;;4.83;1.40;;;;;;;5.06;100.00;96360.97;4854308;29;20041;-93
2023/01/12 07:08:18;;;;;;;8.30;1.20;;;;;;;4.98;100.00;96361.59;4868091;29;20074;-92
2023/01/12 07:10:52;;;;;;;9.50;2.30;;;;;;;4.94;100.00;96363.63;4843337;29;20037;-93
2023/01/12 07:13:18;;;;;;;12.60;1.70;;;;;;;5.18;100.00;96349.59;4831544;29;20049;-93
2023/01/12 07:15:44;;;;;;;7.80;1.30;;;;;;;5.15;100.00;96345.44;4831063;29;20144;-93
2023/01/12 07:18:09;;;;;;;4.37;1.37;;;;;;;5.24;100.00;96343.88;4815999;29;20078;-92
2023/01/12 07:20:35;;;;;;;8.67;1.53;;;;;;;5.26;100.00;96336.75;4816755;29;20042;-93
2023/01/12 07:23:01;;;;;;;7.00;1.60;;;;;;;5.25;100.00;96335.09;4841935;29;20155;-93
2023/01/12 07:25:27;;;;;;;6.20;1.37;;;;;;;5.31;100.00;96345.03;4830707;29;20038;-93
2023/01/12 07:27:54;;;;;;;9.67;1.90;;;;;;;5.31;100.00;96344.22;4815759;29;20378;-93
2023/01/12 07:30:22;;;;;;;6.07;1.27;;;;;;;5.32;100.00;96343.25;4815944;29;20113;-93
2023/01/12 07:36:35;;;;;;;13.73;2.97;;;;;;;5.33;100.00;96335.31;4865802;29;20529;-93
2023/01/12 07:39:02;;;;;;;7.70;1.70;;;;;;;5.27;100.00;96335.00;4849809;29;20033;-93
2023/01/12 07:45:15;;;;;;;5.63;1.17;;;;;;;5.32;100.00;96327.59;4870947;29;20048;-93
2023/01/12 07:48:20;;;;;;;4.87;1.20;;;;;;;5.28;100.00;96334.84;4842932;29;20038;-93
2023/01/12 07:50:45;;;;;;;10.50;2.33;;;;;;;5.49;100.00;96334.06;4834315;29;20038;-93
2023/01/12 07:56:59;;;;;;;8.07;2.10;;;;;;;5.57;100.00;96344.72;4861184;29;20059;-93
2023/01/12 07:59:26;;;;;;;10.47;1.60;;;;;;;5.56;100.00;96338.63;4838277;29;20038;-93
2023/01/12 08:01:53;;;;;;;4.57;1.00;;;;;;;5.58;100.00;96348.97;4816780;29;20482;-93
2023/01/12 08:04:22;;;;;;;6.27;1.40;;;;;;;5.65;100.00;96339.69;4845716;29;20038;-93
2023/01/12 08:06:47;;;;;;;7.33;2.20;;;;;;;5.61;100.00;96339.09;4830663;29;20034;-92
2023/01/12 08:13:01;;;;;;;8.23;1.40;;;;;;;5.67;100.00;96335.19;4848856;29;20082;-92
2023/01/12 08:15:35;;;;;;;6.03;2.00;;;;;;;5.69;100.00;96341.06;4844880;29;20045;-91
2023/01/12 08:18:26;;;;;;;7.30;1.33;;;;;;;5.72;100.00;96340.81;4821198;29;20042;-92
2023/01/12 08:20:57;;;;;;;6.37;0.90;;;;;;;5.72;100.00;96342.59;4823185;29;20085;-93
2023/01/12 08:23:28;;;;;;;10.73;2.00;;;;;;;5.72;100.00;96342.59;4830208;29;20545;-93
2023/01/12 08:25:58;;;;;;;6.10;1.70;;;;;;;5.78;100.00;96337.72;4847093;29;20033;-92
2023/01/12 08:28:35;;;;;;;6.50;1.50;;;;;;;5.76;100.00;96337.00;4831329;29;20046;-92
2023/01/12 08:35:39;;;;;;;6.77;1.80;;;;;;;5.84;100.00;96321.56;4846283;29;20092;-92
2023/01/12 08:38:50;;;;;;;8.17;1.77;;;;;;;5.84;100.00;96320.72;4815385;29;20045;-92
2023/01/12 08:41:31;;;;;;;3.20;1.10;;;;;;;5.96;100.00;96317.09;4816197;29;20087;-92
2023/01/12 08:44:03;;;;;;;6.63;1.53;;;;;;;6.06;100.00;96314.56;4815457;29;20042;-92
2023/01/12 08:46:33;;;;;;;8.37;1.40;;;;;;;6.10;100.00;96310.72;4825462;29;20072;-92
2023/01/12 08:49:03;;;;;;;4.43;1.20;;;;;;;6.20;100.00;96310.78;4834863;29;20042;-92
2023/01/12 08:51:29;;;;;;;4.20;1.10;;;;;;;6.18;100.00;96313.53;4850364;29;20025;-92
2023/01/12 08:53:54;;;;;;;8.00;1.37;;;;;;;6.22;100.00;96314.09;4832749;29;20136;-92
2023/01/12 08:56:20;;;;;;;5.97;1.50;;;;;;;6.23;100.00;96300.88;4820938;29;20105;-92
2023/01/12 08:59:37;;;;;;;7.77;1.40;;;;;;;6.28;100.00;96303.94;4821969;29;20045;-92
2023/01/12 09:02:03;;;;;;;5.47;1.23;;;;;;;6.34;100.00;96303.44;4849399;29;20042;-92
2023/01/12 09:08:16;;;;;;;8.17;1.40;;;;;;;6.38;100.00;96299.59;4843294;29;20128;-92
2023/01/12 09:10:41;;;;;;;9.40;1.20;;;;;;;6.38;100.00;96302.19;4829135;29;20038;-92
2023/01/12 09:13:10;;;;;;;7.57;0.83;;;;;;;6.33;100.00;96317.44;4814375;29;20038;-92
2023/01/12 09:15:36;;;;;;;6.80;1.10;;;;;;;6.30;100.00;96306.41;4814066;29;20121;-92
2023/01/12 09:18:02;;;;;;;5.53;1.17;;;;;;;6.32;100.00;96307.13;4799063;29;20079;-92
2023/01/12 09:20:28;;;;;;;6.77;1.60;;;;;;;6.26;100.00;96300.63;4829457;29;20049;-92
2023/01/12 09:22:53;;;;;;;6.10;1.53;;;;;;;6.26;100.00;96305.84;4829080;29;20057;-92
2023/01/12 09:25:19;;;;;;;5.37;1.17;;;;;;;6.28;100.00;96303.94;4829284;29;20042;-92
2023/01/12 09:27:45;;;;;;;3.67;1.03;;;;;;;6.32;100.00;96313.16;4837541;29;20052;-91
2023/01/12 09:30:11;;;;;;;7.50;1.43;;;;;;;6.32;100.00;96313.16;4834047;29;20026;-92
2023/01/12 09:32:47;;;;;;;6.60;1.30;;;;;;;6.35;100.00;96305.06;4831262;29;20486;-92
2023/01/12 09:35:13;;;;;;;6.80;2.00;;;;;;;6.34;100.00;96306.03;4828814;29;20041;-92
2023/01/12 09:37:42;;;;;;;5.27;1.20;;;;;;;6.34;100.00;96311.28;4825265;29;20037;-93
2023/01/12 09:40:14;;;;;;;8.00;1.93;;;;;;;6.37;100.00;96307.53;4828084;29;20071;-92
2023/01/12 09:48:34;;;;;;;4.97;1.47;;;;;;;6.42;100.00;96325.44;4828637;29;20045;-92
2023/01/12 09:51:20;;;;;;;5.38;1.20;;;;;;;6.47;100.00;96328.47;4830721;29;20096;-93
2023/01/12 09:53:45;;;;;;;8.63;1.70;;;;;;;6.40;100.00;96329.97;4834229;29;20060;-93
2023/01/12 09:56:39;;;;;;;5.00;1.20;;;;;;;6.39;100.00;96329.16;4828343;29;20390;-93
2023/01/12 09:59:44;;;;;;;5.07;1.57;;;;;;;6.39;100.00;96326.53;4813134;29;20034;-93
2023/01/12 10:02:12;;;;;;;9.30;2.85;;;;;;;6.38;100.00;96320.50;4824554;29;20136;-93
2023/01/12 10:08:04;;;;;;;7.50;1.70;;;;;;;6.42;100.00;96315.81;4828603;29;20034;-93
2023/01/12 10:10:40;;;;;;;11.10;1.83;;;;;;;6.38;100.00;96312.66;4814952;29;20463;-91
2023/01/12 10:13:12;;;;;;;8.47;1.47;;;;;;;6.40;100.00;96315.13;4829527;29;20085;-92
2023/01/12 10:19:44;;;;;;;6.67;1.17;;;;;;;6.55;100.00;96324.25;4844496;29;20040;-92
2023/01/12 10:22:53;;;;;;;7.57;0.97;;;;;;;6.53;100.00;96313.09;4812545;29;20099;-92
2023/01/12 10:25:48;;;;;;;6.13;1.03;;;;;;;6.58;100.00;96312.72;4818874;29;20136;-92
2023/01/12 10:28:28;;;;;;;5.80;1.13;;;;;;;6.61;100.00;96296.78;4850836;29;20038;-92
2023/01/12 10:31:17;;;;;;;5.10;1.10;;;;;;;6.75;100.00;96298.19;4812676;29;20061;-92
2023/01/12 10:37:42;;;;;;;4.20;1.27;;;;;;;6.87;100.00;96309.34;4851315;29;20129;-92
2023/01/12 10:40:21;;;;;;;4.87;1.20;;;;;;;6.94;100.00;96300.00;4845043;29;20163;-92
2023/01/12 10:43:22;;;;;;;5.43;1.10;;;;;;;6.92;100.00;96292.31;4841891;29;20037;-92
2023/01/12 10:46:17;;;;;;;3.13;1.03;;;;;;;6.96;100.00;96282.41;4824091;29;20038;-91
2023/01/12 10:48:48;;;;;;;8.47;1.60;;;;;;;7.07;100.00;96275.25;4830110;29;20500;-93
2023/01/12 10:51:25;;;;;;;9.17;1.67;;;;;;;7.12;100.00;96276.66;4830583;29;20034;-91
2023/01/12 10:53:56;;;;;;;3.73;1.10;;;;;;;7.08;100.00;96268.25;4822715;29;20041;-92
2023/01/12 10:56:30;;;;;;;6.63;0.90;;;;;;;7.11;100.00;96254.91;4818723;29;20098;-91
2023/01/12 10:59:07;;;;;;;6.40;1.30;;;;;;;7.21;100.00;96247.91;4824998;29;20042;-91
2023/01/12 11:04:52;;;;;;;5.10;1.35;;;;;;;7.32;100.00;96237.28;4834304;29;20049;-92
2023/01/12 11:07:30;;;;;;;6.03;1.80;;;;;;;7.38;100.00;96254.22;4812666;29;20405;-91
2023/01/12 11:10:37;;;;;;;5.53;1.40;;;;;;;7.50;100.00;96244.41;4812182;29;20053;-92
2023/01/12 11:13:07;;;;;;;6.27;1.30;;;;;;;7.56;100.00;96251.72;4819876;29;20061;-91
2023/01/12 11:15:37;;;;;;;6.27;1.20;;;;;;;7.61;100.00;96246.88;4849515;29;20063;-91
2023/01/12 11:18:24;;;;;;;7.63;1.60;;;;;;;7.73;100.00;96237.91;4834934;29;20045;-91
2023/01/12 11:21:00;;;;;;;5.80;1.00;;;;;;;7.80;100.00;96233.75;4836010;29;20040;-91
2023/01/12 11:26:58;;;;;;;3.47;0.70;;;;;;;7.93;100.00;96228.19;4863954;29;20037;-92
2023/01/12 11:29:36;;;;;;;4.07;0.93;;;;;;;8.19;100.00;96215.28;4829584;29;20505;-92
2023/01/12 11:32:20;;;;;;;5.57;1.00;;;;;;;8.10;100.00;96218.75;4819831;29;20078;-91
2023/01/12 11:35:15;;;;;;;4.57;1.03;;;;;;;8.14;100.00;96225.34;4812576;29;20045;-92
2023/01/12 11:37:47;;;;;;;3.37;0.97;;;;;;;8.15;100.00;96213.06;4816185;29;20033;-92
2023/01/12 11:40:36;;;;;;;7.80;1.10;;;;;;;8.03;100.00;96222.94;4816107;29;20507;-92
2023/01/12 11:46:42;;;;;;;3.83;0.73;;;;;;;8.10;100.00;96208.28;4834514;29;20106;-91
2023/01/12 11:49:31;;;;;;;4.77;1.30;;;;;;;8.09;100.00;96209.25;4814800;29;20041;-91
2023/01/12 11:51:58;;;;;;;6.67;1.53;;;;;;;8.01;100.00;96215.22;4828882;29;20048;-92
2023/01/12 11:54:29;;;;;;;3.13;0.63;;;;;;;7.87;100.00;96214.84;4832536;29;20040;-92
2023/01/12 11:57:13;;;;;;;5.30;1.00;;;;;;;7.88;100.00;96212.09;4819194;29;20074;-91
2023/01/12 12:03:37;;;;;;;4.53;0.80;;;;;;;7.77;100.00;96202.59;4835770;29;20045;-91
2023/01/12 12:06:06;;;;;;;4.13;0.87;;;;;;;7.72;100.00;96204.84;4829586;29;20050;-91
2023/01/12 12:08:36;;;;;;;2.90;0.53;;;;;;;7.71;100.00;96203.19;4818402;29;20090;-92
2023/01/12 12:11:29;;;;;;;6.93;0.70;;;;;;;7.72;100.00;96197.00;4830003;29;20072;-92
2023/01/12 12:14:32;;;;;;;6.30;0.80;;;;;;;7.87;100.00;96197.34;4815508;29;20034;-91
2023/01/12 12:17:15;;;;;;;3.53;0.80;;;;;;;8.08;100.00;96181.44;4839287;29;20547;-92
2023/01/12 12:20:28;;;;;;;5.78;1.10;;;;;;;8.13;100.00;96181.81;4819623;29;20034;-92
2023/01/12 12:23:21;;;;;;;1.87;0.40;;;;;;;8.14;100.00;96172.97;4848249;29;20045;-92
2023/01/12 12:25:54;;;;;;;2.95;0.55;;;;;;;8.06;100.00;96170.25;4830828;29;20042;-92
2023/01/12 12:28:43;;;;;;;1.70;0.37;;;;;;;8.00;100.00;96162.97;4816765;29;20056;-93
2023/01/12 12:31:41;;;;;;;3.07;0.60;;;;;;;8.08;100.00;96164.88;4814627;29;20049;-91
2023/01/12 12:34:42;;;;;;;6.03;0.90;;;;;;;8.09;100.00;96162.13;4820800;29;20052;-91
2023/01/12 12:37:31;;;;;;;4.03;1.07;;;;;;;8.09;100.00;96166.53;4828930;29;20044;-92
2023/01/12 12:40:15;;;;;;;1.80;0.50;;;;;;;8.10;100.00;96173.41;4836768;29;20045;-92
2023/01/12 12:46:21;;;;;;;2.67;0.63;;;;;;;8.19;100.00;96159.44;4836858;29;20037;-92
2023/01/12 12:49:03;;;;;;;11.50;3.80;;;;;;;8.21;100.00;96165.34;4820989;29;20490;-90
2023/01/12 12:51:32;;;;;;;4.87;1.13;;;;;;;8.21;100.00;96171.41;4846822;29;20030;-92
2023/01/12 12:54:02;;;;;;;4.47;0.87;;;;;;;8.30;100.00;96163.66;4868633;29;20026;-91
2023/01/12 12:56:32;;;;;;;2.80;0.60;;;;;;;8.37;100.00;96155.06;4841370;29;20057;-92
2023/01/12 12:59:02;;;;;;;3.93;0.70;;;;;;;8.31;100.00;96150.41;4850054;29;20097;-93
2023/01/12 13:01:59;;;;;;;1.60;0.60;;;;;;;8.22;100.00;96151.31;4828459;29;20122;-95
2023/01/12 13:04:45;;;;;;;3.87;0.50;;;;;;;8.19;100.00;96152.41;4821944;29;20126;-92
2023/01/12 13:07:18;;;;;;;3.70;0.70;;;;;;;8.12;100.00;96146.13;4830451;29;20102;-92
2023/01/12 13:10:22;;;;;;;5.30;1.73;;;;;;;8.21;100.00;96145.22;4858559;29;20054;-92
2023/01/12 13:12:57;;;;;;;1.90;0.63;;;;;;;8.13;100.00;96142.50;4818658;29;20061;-92
2023/01/12 13:15:28;;;;;;;4.53;1.20;;;;;;;8.14;100.00;96153.81;4829465;29;20062;-92
2023/01/12 13:18:47;;;;;;;5.17;2.13;;;;;;;8.15;100.00;96153.69;4846144;29;20061;-91
2023/01/12 13:21:49;;;;;;;2.53;1.00;;;;;;;8.15;100.00;96145.81;4759697;30;20135;-92
2023/01/12 13:24:23;;;;;;;1.70;0.63;;;;;;;8.12;100.00;96151.34;4844950;29;20058;-92
2023/01/12 13:26:54;;;;;;;0.50;0.30;;;;;;;8.05;100.00;96150.28;4848360;29;20053;-92
2023/01/12 13:29:27;;;;;;;4.27;1.33;;;;;;;8.12;100.00;96151.34;4833964;29;20098;-91
2023/01/12 13:32:35;;;;;;;2.45;0.77;;;;;;;8.09;100.00;96154.25;4819934;29;20046;-92
2023/01/12 13:35:02;;;;;;;4.07;1.50;;;;;;;8.14;100.00;96151.19;4833845;29;20049;-92
2023/01/12 13:37:47;;;;;;;6.10;2.50;;;;;;;8.16;100.00;96157.94;4834840;29;20045;-92
2023/01/12 13:40:19;;;;;;;2.30;0.73;;;;;;;8.17;100.00;96149.09;4829475;29;20128;-91
2023/01/12 13:45:51;;;;;;;2.17;0.50;;;;;;;8.12;100.00;96151.34;4834332;29;20134;-92